Time;durP1;ratioP1;P1;durP2;ratioP2;P2;SDS_P1;SDS_P2;PMS_P1;PMS_P2;Temp;Humidity;BMP_temperature;BMP_pressure;BME280_temperature;BME280_humidity;BME280_pressure;Samples;Min_cycle;Max_cycle;Signal;HPM_P1;HPM_P2
2021/07/16 00:01:06;;;;;;;24.25;13.10;;;16.30;99.90;;;;;;5081668;28;20642;-66
2021/07/16 00:03:32;;;;;;;;;;;16.30;99.90;;;;;;5080870;28;20040;-65
2021/07/16 00:05:57;;;;;;;22.08;13.48;;;16.30;99.90;;;;;;5081950;28;19927;-64
2021/07/16 00:08:23;;;;;;;;;;;16.40;99.90;;;;;;5082680;28;20411;-65
2021/07/16 00:10:49;;;;;;;21.55;14.10;;;16.40;99.90;;;;;;5082482;28;19912;-64
2021/07/16 00:13:14;;;;;;;28.77;15.68;;;16.40;99.90;;;;;;5081564;28;20550;-64
2021/07/16 00:15:40;;;;;;;;;;;16.50;99.90;;;;;;5092625;28;20399;-65
2021/07/16 00:18:06;;;;;;;25.70;15.23;;;16.50;99.90;;;;;;5083659;28;19916;-63
2021/07/16 00:20:31;;;;;;;;;;;16.50;99.90;;;;;;5089447;28;20046;-64
2021/07/16 00:22:57;;;;;;;34.95;19.00;;;16.60;99.90;;;;;;5087980;28;20409;-66
2021/07/16 00:25:22;;;;;;;;;;;16.60;99.90;;;;;;5088762;28;20142;-64
2021/07/16 00:27:48;;;;;;;31.55;16.48;;;16.60;99.90;;;;;;5089450;28;19920;-63
2021/07/16 00:30:14;;;;;;;;;;;16.60;99.90;;;;;;5089924;28;20036;-65
2021/07/16 00:32:40;;;;;;;31.67;16.88;;;16.70;99.90;;;;;;5088624;28;19995;-63
2021/07/16 00:35:06;;;;;;;;;;;16.70;99.90;;;;;;5088914;28;20044;-65
2021/07/16 00:37:31;;;;;;;34.97;16.90;;;16.80;99.90;;;;;;5088182;28;19920;-65
2021/07/16 00:39:57;;;;;;;;;;;16.80;99.90;;;;;;5089180;28;20032;-64
2021/07/16 00:42:23;;;;;;;38.40;18.15;;;16.80;99.90;;;;;;5087275;28;19959;-65
2021/07/16 00:44:48;;;;;;;;;;;16.80;99.90;;;;;;5083021;28;20079;-65
2021/07/16 00:47:14;;;;;;;38.80;19.60;;;16.90;99.90;;;;;;5087456;28;19920;-64
2021/07/16 00:49:39;;;;;;;31.50;19.30;;;16.80;99.90;;;;;;5087595;28;20036;-65
2021/07/16 00:52:05;;;;;;;;;;;16.90;99.90;;;;;;5087949;28;20059;-65
2021/07/16 00:54:31;;;;;;;31.67;16.67;;;16.90;99.90;;;;;;5087969;28;19920;-64
2021/07/16 00:56:57;;;;;;;;;;;16.90;99.90;;;;;;5088306;28;20551;-64
2021/07/16 00:59:25;;;;;;;34.17;17.17;;;16.90;99.90;;;;;;5088079;28;19916;-64
2021/07/16 01:01:53;;;;;;;32.88;18.83;;;16.90;99.90;;;;;;5086031;28;20074;-65
2021/07/16 01:04:19;;;;;;;32.67;20.10;;;16.90;99.90;;;;;;5088150;28;20115;-65
2021/07/16 01:06:44;;;;;;;;;;;16.90;99.90;;;;;;5088098;28;20131;-64
2021/07/16 01:09:10;;;;;;;37.20;18.65;;;16.90;99.90;;;;;;5087940;28;19916;-65
2021/07/16 01:11:36;;;;;;;;;;;16.90;99.90;;;;;;5087716;28;20040;-65
2021/07/16 01:14:02;;;;;;;25.67;15.70;;;16.90;99.90;;;;;;5084246;28;20005;-65
2021/07/16 01:16:28;;;;;;;;;;;16.90;99.90;;;;;;5087191;28;20121;-65
2021/07/16 01:18:54;;;;;;;30.30;16.80;;;16.90;99.90;;;;;;5083083;28;19939;-65
2021/07/16 01:21:22;;;;;;;30.58;15.90;;;16.90;99.90;;;;;;5086843;28;20039;-66
2021/07/16 01:23:48;;;;;;;26.25;16.60;;;16.90;99.90;;;;;;5087542;28;20118;-65
2021/07/16 01:26:13;;;;;;;;;;;16.90;99.90;;;;;;5087928;28;20127;-65
2021/07/16 01:28:40;;;;;;;23.58;13.35;;;16.90;99.90;;;;;;5084689;28;19930;-65
2021/07/16 01:31:06;;;;;;;18.88;12.50;;;16.90;99.90;;;;;;5086390;28;20111;-65
2021/07/16 01:33:32;;;;;;;20.45;12.25;;;16.90;99.90;;;;;;5087143;28;20055;-66
2021/07/16 01:35:59;;;;;;;;;;;16.80;99.90;;;;;;5086043;28;20407;-66
2021/07/16 01:38:25;;;;;;;17.73;11.38;;;16.80;99.90;;;;;;5087436;28;19943;-66
2021/07/16 01:40:51;;;;;;;34.08;13.85;;;16.70;99.90;;;;;;5087097;28;20054;-66
2021/07/16 01:43:17;;;;;;;;;;;16.70;99.90;;;;;;5085718;28;20036;-66
2021/07/16 01:45:43;;;;;;;26.40;12.65;;;16.60;99.90;;;;;;5077863;28;19943;-66
2021/07/16 01:48:10;;;;;;;;;;;16.60;99.90;;;;;;5081950;28;20050;-65
2021/07/16 01:50:36;;;;;;;;;;;16.60;99.90;;;;;;5083977;28;20524;-66
2021/07/16 01:53:03;;;;;;;15.35;10.98;;;16.60;99.90;;;;;;5085389;28;19998;-64
2021/07/16 01:55:30;;;;;;;19.55;12.43;;;16.70;99.90;;;;;;5086141;28;20048;-65
2021/07/16 01:57:58;;;;;;;19.73;10.95;;;16.70;99.90;;;;;;5070578;28;20044;-66
2021/07/16 02:00:29;;;;;;;18.02;11.50;;;16.60;99.90;;;;;;5066199;28;20043;-67
2021/07/16 02:02:58;;;;;;;17.42;12.07;;;16.60;99.90;;;;;;5065079;28;20748;-67
2021/07/16 02:05:25;;;;;;;20.88;12.75;;;16.60;99.90;;;;;;5065868;28;20044;-66
2021/07/16 02:07:55;;;;;;;18.05;11.50;;;16.50;99.90;;;;;;5065665;28;20488;-66
2021/07/16 02:10:22;;;;;;;14.60;10.68;;;16.50;99.90;;;;;;5067187;28;20106;-67
2021/07/16 02:12:48;;;;;;;14.95;9.63;;;16.50;99.90;;;;;;5066115;28;20048;-65
2021/07/16 02:15:18;;;;;;;;;;;16.50;99.90;;;;;;5079244;28;20040;-64
2021/07/16 02:17:45;;;;;;;15.13;10.20;;;16.40;99.90;;;;;;5086811;28;19916;-65
2021/07/16 02:20:29;;;;;;;19.60;10.80;;;16.40;99.90;;;;;;5086337;28;20032;-68
2021/07/16 02:22:57;;;;;;;13.02;10.23;;;16.30;99.90;;;;;;5084514;28;20059;-66
2021/07/16 02:25:24;;;;;;;11.80;8.90;;;16.40;99.90;;;;;;5083722;28;20063;-66
2021/07/16 02:27:54;;;;;;;18.52;10.68;;;16.40;99.90;;;;;;5086570;28;20169;-66
2021/07/16 02:30:21;;;;;;;15.27;10.27;;;16.40;99.90;;;;;;5086207;28;20107;-65
2021/07/16 02:32:47;;;;;;;13.45;9.38;;;16.30;99.90;;;;;;5085056;28;20044;-65
2021/07/16 02:35:14;;;;;;;15.10;10.10;;;16.30;99.90;;;;;;5086250;28;20694;-65
2021/07/16 02:37:40;;;;;;;15.65;9.93;;;16.40;99.90;;;;;;5086392;28;20040;-64
2021/07/16 02:40:07;;;;;;;;;;;16.30;99.90;;;;;;5087084;28;20499;-65
2021/07/16 02:42:33;;;;;;;17.70;11.18;;;16.30;99.90;;;;;;5084609;28;19926;-64
2021/07/16 02:44:58;;;;;;;;;;;16.30;99.90;;;;;;5080890;28;20040;-66
2021/07/16 02:47:24;;;;;;;23.48;11.82;;;16.20;99.90;;;;;;5085665;28;20399;-66
2021/07/16 02:49:50;;;;;;;;;;;16.20;99.90;;;;;;5086551;28;20036;-66
2021/07/16 02:52:16;;;;;;;31.98;15.20;;;16.10;99.90;;;;;;5085162;28;19923;-66
2021/07/16 02:54:41;;;;;;;19.63;10.82;;;16.10;99.90;;;;;;5085726;28;20071;-66
2021/07/16 02:57:07;;;;;;;;;;;16.10;99.90;;;;;;5086650;28;20058;-65
2021/07/16 02:59:32;;;;;;;28.70;12.20;;;16.10;99.90;;;;;;5086466;28;19920;-67
2021/07/16 03:01:58;;;;;;;;;;;16.10;99.90;;;;;;5084492;28;20391;-66
2021/07/16 03:04:25;;;;;;;22.67;11.65;;;16.00;99.90;;;;;;5086245;28;19916;-65
2021/07/16 03:06:51;;;;;;;42.25;12.60;;;16.00;99.90;;;;;;5086177;28;20050;-66
2021/07/16 03:09:16;;;;;;;;;;;15.90;99.90;;;;;;5087047;28;20044;-65
2021/07/16 03:11:42;;;;;;;27.15;11.48;;;15.90;99.90;;;;;;5084910;28;19939;-66
2021/07/16 03:14:08;;;;;;;;;;;15.90;99.90;;;;;;5082841;28;20136;-65
2021/07/16 03:16:33;;;;;;;22.60;11.77;;;15.80;99.90;;;;;;5084009;28;19919;-64
2021/07/16 03:18:59;;;;;;;;;;;15.90;99.90;;;;;;5086243;28;20044;-66
2021/07/16 03:21:25;;;;;;;18.27;10.27;;;15.80;99.90;;;;;;5085047;28;19928;-65
2021/07/16 03:23:50;;;;;;;;;;;15.80;99.90;;;;;;5086492;28;20032;-65
2021/07/16 03:26:16;;;;;;;14.65;9.27;;;15.70;99.90;;;;;;5086129;28;19920;-65
2021/07/16 03:28:42;;;;;;;;;;;15.70;99.90;;;;;;5086580;28;20032;-64
2021/07/16 03:31:07;;;;;;;17.75;10.25;;;15.70;99.90;;;;;;5084289;28;20476;-66
2021/07/16 03:33:33;;;;;;;;;;;15.70;99.90;;;;;;5085420;28;20036;-66
2021/07/16 03:35:59;;;;;;;15.48;9.50;;;15.70;99.90;;;;;;5085930;28;19912;-65
2021/07/16 03:38:24;;;;;;;;;;;15.70;99.90;;;;;;5086183;28;20063;-64
2021/07/16 03:40:55;;;;;;;10.95;7.63;;;15.70;99.90;;;;;;5085969;28;20010;-65
2021/07/16 03:43:21;;;;;;;12.70;7.68;;;15.80;99.90;;;;;;5085241;28;20044;-66
2021/07/16 03:45:47;;;;;;;11.65;7.40;;;15.80;99.90;;;;;;5080031;28;20570;-65
2021/07/16 03:48:13;;;;;;;;;;;15.80;99.90;;;;;;5086320;28;20096;-66
2021/07/16 03:50:39;;;;;;;8.75;6.15;;;15.80;99.90;;;;;;5086028;28;20379;-66
2021/07/16 03:53:05;;;;;;;;;;;15.90;99.90;;;;;;5086901;28;20074;-64
2021/07/16 03:55:31;;;;;;;10.52;5.80;;;15.90;99.90;;;;;;5086439;28;19920;-66
2021/07/16 03:57:57;;;;;;;;;;;15.80;99.90;;;;;;5086702;28;20044;-64
2021/07/16 04:00:30;;;;;;;12.13;5.88;;;15.80;99.90;;;;;;5088808;28;19912;-64
2021/07/16 04:02:57;;;;;;;8.95;6.35;;;15.70;99.90;;;;;;5088254;28;20566;-65
2021/07/16 04:05:23;;;;;;;7.40;5.10;;;15.70;99.90;;;;;;5088836;28;20048;-66
2021/07/16 04:07:51;;;;;;;8.77;5.63;;;15.70;99.90;;;;;;5088908;28;20047;-67
2021/07/16 04:10:21;;;;;;;9.30;5.65;;;15.60;99.90;;;;;;5089456;28;20508;-68
2021/07/16 04:13:07;;;;;;;5.45;4.13;;;15.60;99.90;;;;;;5087032;28;20463;-67
2021/07/16 04:15:34;;;;;;;9.40;5.63;;;15.60;99.90;;;;;;5082626;28;20039;-66
2021/07/16 04:18:01;;;;;;;9.10;5.95;;;15.60;99.90;;;;;;5088812;28;20640;-66
2021/07/16 04:20:28;;;;;;;9.18;5.18;;;15.60;99.90;;;;;;5088691;28;20036;-66
2021/07/16 04:22:56;;;;;;;8.63;5.10;;;15.60;99.90;;;;;;5087744;28;20047;-65
2021/07/16 04:25:22;;;;;;;7.68;5.40;;;15.60;99.90;;;;;;5088424;28;20040;-65
2021/07/16 04:27:50;;;;;;;9.23;4.90;;;15.60;99.90;;;;;;5088874;28;20096;-66
2021/07/16 04:30:18;;;;;;;7.13;5.43;;;15.60;99.90;;;;;;5088110;28;20097;-66
2021/07/16 04:32:44;;;;;;;5.45;3.58;;;15.60;99.90;;;;;;5085033;28;20065;-65
2021/07/16 04:35:11;;;;;;;5.70;4.68;;;15.60;99.90;;;;;;5087035;28;20050;-65
2021/07/16 04:37:38;;;;;;;3.95;3.10;;;15.70;99.90;;;;;;5087807;28;20088;-64
2021/07/16 04:40:05;;;;;;;4.22;3.50;;;15.70;99.90;;;;;;5088776;28;20051;-65
2021/07/16 04:42:31;;;;;;;4.75;2.58;;;15.80;99.90;;;;;;5086859;28;20035;-65
2021/07/16 04:44:57;;;;;;;;;;;15.70;99.90;;;;;;5083024;28;20096;-66
2021/07/16 04:47:22;;;;;;;9.18;4.10;;;15.70;99.90;;;;;;5087804;28;19920;-65
2021/07/16 04:49:47;;;;;;;;;;;15.70;99.90;;;;;;5088385;28;20036;-65
2021/07/16 04:52:13;;;;;;;5.05;2.92;;;15.60;99.90;;;;;;5086734;28;19916;-65
2021/07/16 04:54:39;;;;;;;;;;;15.60;99.90;;;;;;5088783;28;20032;-64
2021/07/16 04:57:08;;;;;;;5.78;3.55;;;15.50;99.90;;;;;;5087939;28;19916;-66
2021/07/16 04:59:34;;;;;;;5.13;3.65;;;15.50;99.90;;;;;;5088108;28;20048;-64
2021/07/16 05:02:00;;;;;;;4.35;3.15;;;15.50;99.90;;;;;;5085950;28;20400;-66
2021/07/16 05:04:25;;;;;;;;;;;15.50;99.90;;;;;;5088734;28;20032;-66
2021/07/16 05:06:51;;;;;;;6.13;3.95;;;15.50;99.90;;;;;;5087237;28;19928;-66
2021/07/16 05:09:16;;;;;;;;;;;15.50;99.90;;;;;;5088368;28;20050;-66
2021/07/16 05:11:43;;;;;;;6.53;3.83;;;15.40;99.90;;;;;;5086671;28;19955;-66
2021/07/16 05:14:09;;;;;;;5.07;4.03;;;15.40;99.90;;;;;;5083915;28;20072;-66
2021/07/16 05:16:35;;;;;;;;;;;15.40;99.90;;;;;;5085807;28;20118;-66
2021/07/16 05:19:00;;;;;;;6.45;4.13;;;15.40;99.90;;;;;;5085567;28;20396;-66
2021/07/16 05:21:26;;;;;;;;;;;15.40;99.90;;;;;;5086869;28;20056;-65
2021/07/16 05:23:52;;;;;;;4.60;3.13;;;15.30;99.90;;;;;;5087276;28;19916;-66
2021/07/16 05:26:17;;;;;;;;;;;15.40;99.90;;;;;;5088143;28;20044;-66
2021/07/16 05:28:45;;;;;;;6.70;3.83;;;15.40;99.90;;;;;;5087889;28;20010;-66
2021/07/16 05:31:11;;;;;;;5.65;4.10;;;15.40;99.90;;;;;;5086626;28;20426;-66
2021/07/16 05:33:37;;;;;;;6.22;3.83;;;15.40;99.90;;;;;;5087321;28;20131;-65
2021/07/16 05:36:03;;;;;;;;;;;15.40;99.90;;;;;;5088240;28;20114;-65
2021/07/16 05:38:29;;;;;;;3.92;3.22;;;15.40;99.90;;;;;;5087597;28;20558;-65
2021/07/16 05:40:54;;;;;;;;;;;15.40;99.90;;;;;;5087608;28;20051;-65
2021/07/16 05:43:21;;;;;;;5.82;3.63;;;15.40;99.90;;;;;;5087146;28;19973;-65
2021/07/16 05:45:46;;;;;;;5.32;3.83;;;15.40;99.90;;;;;;5081101;28;20048;-66
2021/07/16 05:48:12;;;;;;;;;;;15.50;99.90;;;;;;5087788;28;20040;-65
2021/07/16 05:50:39;;;;;;;7.05;4.20;;;15.50;99.90;;;;;;5085227;28;20014;-65
2021/07/16 05:53:05;;;;;;;6.82;4.07;;;15.50;99.90;;;;;;5086343;28;20557;-66
2021/07/16 05:55:32;;;;;;;4.95;3.72;;;15.40;99.90;;;;;;5087349;28;20059;-67
2021/07/16 05:57:58;;;;;;;6.63;4.30;;;15.30;99.90;;;;;;5071388;28;20048;-66
2021/07/16 06:00:23;;;;;;;;;;;15.40;99.90;;;;;;5064466;28;20043;-66
2021/07/16 06:02:49;;;;;;;5.03;3.20;;;15.40;99.90;;;;;;5062597;28;19916;-66
2021/07/16 06:05:14;;;;;;;;;;;15.40;99.90;;;;;;5066516;28;20044;-66
2021/07/16 06:07:42;;;;;;;6.35;4.50;;;15.40;99.90;;;;;;5067224;28;19927;-65
2021/07/16 06:10:09;;;;;;;4.15;3.13;;;15.40;99.90;;;;;;5067187;28;20041;-64
2021/07/16 06:12:38;;;;;;;6.28;3.00;;;15.50;99.90;;;;;;5063571;28;20045;-65
2021/07/16 06:15:06;;;;;;;4.35;2.60;;;15.50;99.90;;;;;;5077910;28;20076;-64
2021/07/16 06:17:32;;;;;;;3.55;2.50;;;15.50;99.90;;;;;;5086311;28;20055;-64
2021/07/16 06:19:59;;;;;;;3.05;2.42;;;15.50;99.90;;;;;;5088196;28;20069;-64
2021/07/16 06:22:24;;;;;;;4.55;2.88;;;15.50;99.90;;;;;;5085369;28;20096;-65
2021/07/16 06:24:50;;;;;;;;;;;15.50;99.90;;;;;;5083525;28;20111;-65
2021/07/16 06:27:15;;;;;;;3.97;2.45;;;15.50;99.90;;;;;;5085329;28;20448;-64
2021/07/16 06:29:41;;;;;;;6.43;2.70;;;15.50;99.90;;;;;;5086526;28;20047;-64
2021/07/16 06:32:06;;;;;;;;;;;15.60;99.90;;;;;;5085911;28;20666;-65
2021/07/16 06:34:32;;;;;;;3.97;2.95;;;15.60;99.90;;;;;;5086526;28;19934;-65
2021/07/16 06:36:58;;;;;;;;;;;15.50;99.90;;;;;;5087263;28;20090;-65
2021/07/16 06:39:24;;;;;;;7.32;3.05;;;15.60;99.90;;;;;;5083001;28;19939;-65
2021/07/16 06:41:50;;;;;;;5.57;3.03;;;15.50;99.90;;;;;;5064043;28;20119;-65
2021/07/16 06:44:15;;;;;;;;;;;15.50;99.90;;;;;;5082603;28;20126;-64
2021/07/16 06:46:42;;;;;;;11.35;7.22;;;15.50;99.90;;;;;;5083233;28;19931;-65
2021/07/16 06:49:08;;;;;;;6.50;3.53;;;15.50;99.90;;;;;;5075626;28;20040;-66
2021/07/16 06:51:33;;;;;;;;;;;15.50;99.90;;;;;;5077631;28;20048;-65
2021/07/16 06:54:00;;;;;;;4.10;2.35;;;15.50;99.90;;;;;;5075931;28;20275;-64
2021/07/16 06:56:26;;;;;;;3.67;2.55;;;15.50;99.90;;;;;;5075995;28;20048;-65
2021/07/16 06:58:52;;;;;;;;;;;15.50;99.90;;;;;;5080031;28;20036;-64
2021/07/16 07:01:19;;;;;;;4.88;2.20;;;15.60;99.90;;;;;;5077129;28;19920;-64
2021/07/16 07:03:45;;;;;;;3.33;2.60;;;15.60;99.90;;;;;;5085587;28;20075;-64
2021/07/16 07:06:11;;;;;;;3.65;1.98;;;15.60;99.90;;;;;;5085889;28;20130;-65
2021/07/16 07:08:36;;;;;;;;;;;15.60;99.90;;;;;;5087106;28;20484;-64
2021/07/16 07:11:03;;;;;;;4.82;2.00;;;15.70;99.90;;;;;;5084782;28;19920;-64
2021/07/16 07:13:29;;;;;;;3.05;1.80;;;15.70;99.90;;;;;;5085490;28;20040;-65
2021/07/16 07:15:55;;;;;;;;;;;15.80;99.90;;;;;;5077270;28;20050;-64
2021/07/16 07:18:20;;;;;;;2.50;1.88;;;15.80;99.90;;;;;;5081648;28;19919;-64
2021/07/16 07:20:46;;;;;;;;;;;15.80;99.90;;;;;;5085430;28;20062;-64
2021/07/16 07:23:11;;;;;;;3.28;2.00;;;15.80;99.90;;;;;;5085773;28;19916;-64
2021/07/16 07:25:37;;;;;;;;;;;15.80;99.90;;;;;;5086799;28;20050;-64
2021/07/16 07:28:03;;;;;;;3.47;2.35;;;15.90;99.90;;;;;;5087686;28;19920;-64
2021/07/16 07:30:28;;;;;;;;;;;15.80;99.90;;;;;;5088557;28;20043;-62
2021/07/16 07:32:54;;;;;;;3.00;2.03;;;15.80;99.90;;;;;;5089359;28;19966;-66
2021/07/16 07:35:20;;;;;;;;;;;15.90;99.90;;;;;;5089975;28;20028;-64
2021/07/16 07:37:45;;;;;;;5.68;2.40;;;15.90;99.90;;;;;;5088702;28;19923;-64
2021/07/16 07:40:13;;;;;;;;;;;16.00;99.90;;;;;;5088486;28;20036;-65
2021/07/16 07:42:39;;;;;;;4.30;2.92;;;15.90;99.90;;;;;;5089285;28;19923;-66
2021/07/16 07:45:06;;;;;;;3.78;2.80;;;15.90;99.90;;;;;;5085481;28;20032;-65
2021/07/16 07:47:33;;;;;;;4.63;2.90;;;15.80;99.90;;;;;;5088828;28;20137;-65
2021/07/16 07:50:00;;;;;;;5.82;3.50;;;15.80;99.90;;;;;;5089740;28;20044;-65
2021/07/16 07:52:27;;;;;;;4.53;3.13;;;15.80;99.90;;;;;;5088703;28;20522;-64
2021/07/16 07:54:53;;;;;;;4.82;3.25;;;15.90;99.90;;;;;;5088584;28;20036;-63
2021/07/16 07:57:19;;;;;;;5.10;3.80;;;15.90;99.90;;;;;;5079297;28;20522;-65
2021/07/16 07:59:45;;;;;;;;;;;15.70;99.90;;;;;;5069651;28;20040;-64
2021/07/16 08:02:10;;;;;;;76.97;48.80;;;15.80;99.90;;;;;;5066608;28;19982;-64
2021/07/16 08:04:37;;;;;;;;;;;15.90;99.90;;;;;;5069714;28;20098;-65
2021/07/16 08:07:04;;;;;;;6.90;4.35;;;15.90;99.90;;;;;;5069386;28;19935;-65
2021/07/16 08:09:30;;;;;;;9.02;3.78;;;15.90;99.90;;;;;;5068987;28;20045;-64
2021/07/16 08:11:55;;;;;;;;;;;15.90;99.90;;;;;;5068370;28;20633;-64
2021/07/16 08:14:21;;;;;;;5.25;3.60;;;15.80;99.90;;;;;;5074499;28;20306;-65
2021/07/16 08:16:47;;;;;;;;;;;15.80;99.90;;;;;;5084870;28;20052;-65
2021/07/16 08:19:19;;;;;;;4.03;3.08;;;15.90;99.90;;;;;;5088461;28;19920;-64
2021/07/16 08:21:51;;;;;;;3.45;2.65;;;15.90;99.90;;;;;;5086790;28;20038;-65
2021/07/16 08:24:38;;;;;;;3.83;2.83;;;16.00;99.90;;;;;;5077042;28;20036;-64
2021/07/16 08:27:04;;;;;;;4.47;2.67;;;16.00;99.90;;;;;;5081245;28;20059;-65
2021/07/16 08:29:29;;;;;;;;;;;16.10;99.90;;;;;;5087513;28;20048;-65
2021/07/16 08:31:55;;;;;;;6.60;2.90;;;16.10;99.90;;;;;;5087860;28;20473;-65
2021/07/16 08:34:20;;;;;;;;;;;16.10;99.90;;;;;;5081265;28;20368;-64
2021/07/16 08:36:46;;;;;;;6.05;3.00;;;16.00;99.90;;;;;;5084295;28;19924;-65
2021/07/16 08:39:12;;;;;;;;;;;15.90;99.90;;;;;;5091319;28;20117;-64
2021/07/16 08:41:38;;;;;;;3.72;3.08;;;15.90;99.90;;;;;;5084381;28;19920;-65
2021/07/16 08:44:04;;;;;;;3.13;2.40;;;16.00;99.90;;;;;;5087796;28;20044;-64
2021/07/16 08:46:30;;;;;;;;;;;16.10;99.90;;;;;;5087378;28;20112;-65
2021/07/16 08:48:59;;;;;;;4.88;3.10;;;16.00;99.90;;;;;;5089936;28;19935;-65
2021/07/16 08:51:27;;;;;;;4.38;3.30;;;16.10;99.90;;;;;;5080525;28;20048;-63
2021/07/16 08:53:57;;;;;;;12.15;6.75;;;16.10;99.90;;;;;;5077530;28;20040;-65
2021/07/16 08:56:25;;;;;;;5.82;3.50;;;16.20;99.90;;;;;;5078540;28;20056;-63
2021/07/16 08:58:51;;;;;;;3.83;2.65;;;16.10;99.90;;;;;;5085077;28;20526;-63
2021/07/16 09:01:17;;;;;;;;;;;16.20;99.90;;;;;;5088611;28;20082;-63
2021/07/16 09:04:03;;;;;;;4.28;2.80;;;16.20;99.90;;;;;;5089097;28;19920;-63
2021/07/16 09:06:53;;;;;;;7.53;5.10;;;16.30;99.90;;;;;;5089324;28;20138;-63
2021/07/16 09:09:23;;;;;;;5.65;3.90;;;16.20;99.90;;;;;;5090416;28;20044;-64
2021/07/16 09:11:52;;;;;;;6.18;4.72;;;16.20;99.90;;;;;;5087224;28;20047;-68
2021/07/16 09:14:26;;;;;;;7.68;4.18;;;16.30;99.90;;;;;;5083268;28;20055;-63
2021/07/16 09:17:04;;;;;;;7.50;4.95;;;16.30;99.90;;;;;;5078805;28;20063;-62
2021/07/16 09:19:39;;;;;;;8.85;5.53;;;16.30;99.90;;;;;;5088183;28;20063;-64
2021/07/16 09:22:22;;;;;;;7.63;5.32;;;16.30;99.90;;;;;;5086429;28;20036;-64
2021/07/16 09:24:59;;;;;;;7.28;5.22;;;16.30;99.90;;;;;;5088332;28;20040;-63
2021/07/16 09:27:33;;;;;;;6.18;4.75;;;16.30;99.90;;;;;;5087939;28;20048;-64
2021/07/16 09:30:17;;;;;;;8.90;5.50;;;16.30;99.90;;;;;;5088305;28;20725;-63
2021/07/16 09:32:48;;;;;;;8.15;5.47;;;16.20;99.90;;;;;;5086635;28;20050;-63
2021/07/16 09:35:25;;;;;;;9.30;6.30;;;16.20;99.90;;;;;;5083208;28;20562;-64
2021/07/16 09:37:52;;;;;;;;;;;16.30;99.90;;;;;;5084386;28;20040;-64
2021/07/16 09:40:23;;;;;;;8.80;5.45;;;16.30;99.90;;;;;;5074335;28;19963;-64
2021/07/16 09:43:06;;;;;;;9.85;5.28;;;16.20;99.90;;;;;;5077939;28;20035;-64
2021/07/16 09:45:34;;;;;;;7.28;5.05;;;16.30;99.90;;;;;;5059307;28;20107;-63
2021/07/16 09:48:19;;;;;;;7.15;5.07;;;16.30;99.90;;;;;;5076710;28;20032;-65
2021/07/16 09:50:45;;;;;;;8.10;5.22;;;16.30;99.90;;;;;;5076266;28;20044;-65
2021/07/16 09:53:15;;;;;;;;;;;16.20;99.90;;;;;;5080184;28;20032;-64
2021/07/16 09:55:41;;;;;;;7.57;4.15;;;16.20;99.90;;;;;;5079204;28;20622;-64
2021/07/16 09:58:25;;;;;;;8.45;5.00;;;16.20;99.90;;;;;;5083674;28;20040;-64
2021/07/16 10:00:52;;;;;;;9.18;5.60;;;16.20;99.90;;;;;;5086946;28;20036;-64
2021/07/16 10:03:19;;;;;;;8.15;6.03;;;16.20;99.90;;;;;;5087622;28;20044;-64
2021/07/16 10:05:46;;;;;;;9.15;5.85;;;16.20;99.90;;;;;;5086467;28;20032;-64
2021/07/16 10:08:12;;;;;;;12.45;6.03;;;16.10;99.90;;;;;;5084496;28;20101;-64
2021/07/16 10:10:39;;;;;;;10.88;6.38;;;16.20;99.90;;;;;;5072790;28;20462;-64
2021/07/16 10:13:07;;;;;;;8.40;5.63;;;16.30;99.90;;;;;;5066589;28;20040;-64
2021/07/16 10:15:34;;;;;;;12.57;9.30;;;16.50;99.90;;;;;;5074562;28;20438;-64
2021/07/16 10:18:02;;;;;;;11.23;7.30;;;16.60;99.90;;;;;;5087101;28;20043;-64
2021/07/16 10:20:28;;;;;;;12.75;8.20;;;16.50;99.90;;;;;;5085328;28;20074;-65
2021/07/16 10:22:54;;;;;;;;;;;16.50;99.90;;;;;;5087163;28;20487;-64
2021/07/16 10:25:22;;;;;;;12.20;7.53;;;16.60;99.90;;;;;;5083104;28;20028;-63
2021/07/16 10:27:48;;;;;;;13.55;8.65;;;16.60;99.90;;;;;;5086524;28;20048;-65
2021/07/16 10:30:16;;;;;;;;;;;16.50;99.90;;;;;;5087121;28;20105;-65
2021/07/16 10:32:52;;;;;;;10.68;7.45;;;16.50;99.90;;;;;;5085785;28;19967;-64
2021/07/16 10:35:25;;;;;;;14.15;8.82;;;16.60;99.90;;;;;;5086597;28;20060;-64
2021/07/16 10:37:59;;;;;;;13.60;9.38;;;16.60;99.90;;;;;;5086752;28;20101;-65
2021/07/16 10:40:37;;;;;;;12.00;8.07;;;16.60;99.90;;;;;;5087110;28;20059;-64
2021/07/16 10:43:08;;;;;;;14.40;6.95;;;16.60;99.90;;;;;;5087235;28;20040;-65
2021/07/16 10:45:37;;;;;;;12.05;7.60;;;16.70;99.90;;;;;;5080748;28;20701;-65
2021/07/16 10:48:17;;;;;;;10.38;6.85;;;16.70;99.90;;;;;;5087841;28;20699;-64
2021/07/16 10:50:45;;;;;;;14.68;8.32;;;16.70;99.90;;;;;;5086006;28;20065;-64
2021/07/16 10:53:28;;;;;;;12.02;7.53;;;16.70;99.90;;;;;;5084376;28;20568;-64
2021/07/16 10:55:56;;;;;;;11.98;8.15;;;16.60;99.90;;;;;;5087503;28;20047;-64
2021/07/16 10:58:43;;;;;;;14.70;8.68;;;16.60;99.90;;;;;;5087306;28;20043;-63
2021/07/16 11:01:11;;;;;;;12.25;7.32;;;16.60;99.90;;;;;;5085414;28;20036;-62
2021/07/16 11:03:46;;;;;;;13.63;8.68;;;16.70;99.90;;;;;;5086203;28;20048;-65
2021/07/16 11:06:14;;;;;;;15.88;9.57;;;16.70;99.90;;;;;;5085965;28;20052;-64
2021/07/16 11:08:40;;;;;;;12.02;8.05;;;16.70;99.90;;;;;;5086582;28;20125;-65
2021/07/16 11:11:06;;;;;;;;;;;16.70;99.90;;;;;;5085334;28;20066;-65
2021/07/16 11:13:43;;;;;;;16.35;8.82;;;16.70;99.90;;;;;;5086064;28;19920;-65
2021/07/16 11:16:15;;;;;;;14.07;8.15;;;16.60;99.90;;;;;;5080051;28;20044;-65
2021/07/16 11:19:14;;;;;;;10.20;7.40;;;16.60;99.90;;;;;;5086082;28;20036;-64
2021/07/16 11:21:40;;;;;;;16.50;10.23;;;16.60;99.90;;;;;;5084860;28;20067;-64
2021/07/16 11:26:58;;;;;;;12.30;8.15;;;16.70;99.90;;;;;;5086022;28;20135;-65
2021/07/16 11:29:42;;;;;;;16.02;9.57;;;16.70;99.90;;;;;;5087102;28;20036;-64
2021/07/16 11:32:12;;;;;;;15.05;8.93;;;16.50;99.90;;;;;;5084811;28;20040;-64
2021/07/16 11:34:53;;;;;;;13.27;8.55;;;16.50;99.90;;;;;;5082932;28;20499;-62
2021/07/16 11:37:29;;;;;;;15.95;9.35;;;16.60;99.90;;;;;;5087062;28;20543;-64
2021/07/16 11:40:05;;;;;;;15.60;9.05;;;16.60;99.90;;;;;;5085508;28;20040;-65
2021/07/16 11:42:35;;;;;;;17.38;10.00;;;16.50;99.90;;;;;;5085352;28;20071;-64
2021/07/16 11:45:02;;;;;;;21.90;10.25;;;16.40;99.90;;;;;;5079803;28;20040;-64
2021/07/16 11:47:31;;;;;;;16.30;9.75;;;16.40;99.90;;;;;;5085423;28;20491;-64
2021/07/16 11:49:59;;;;;;;18.35;10.15;;;16.40;99.90;;;;;;5085806;28;20108;-64
2021/07/16 11:52:30;;;;;;;20.85;13.48;;;16.40;99.90;;;;;;5084292;28;20040;-65
2021/07/16 11:55:29;;;;;;;18.48;10.85;;;16.30;99.90;;;;;;5085627;28;20062;-63
2021/07/16 11:58:02;;;;;;;20.33;10.40;;;16.30;99.90;;;;;;5031704;28;20049;-64
2021/07/16 12:00:34;;;;;;;25.95;11.98;;;16.40;99.90;;;;;;5064161;28;20454;-65
2021/07/16 12:03:06;;;;;;;26.05;13.43;;;16.50;99.90;;;;;;5065244;28;20029;-64
2021/07/16 12:05:52;;;;;;;19.52;12.25;;;16.40;99.90;;;;;;5063432;28;20128;-64
2021/07/16 12:08:28;;;;;;;26.60;14.10;;;16.40;99.90;;;;;;5077637;28;20640;-64
2021/07/16 12:11:07;;;;;;;19.30;10.82;;;16.40;99.90;;;;;;5085581;28;20036;-64
2021/07/16 12:13:34;;;;;;;24.90;12.50;;;16.40;99.90;;;;;;5085823;28;20116;-65
2021/07/16 12:16:05;;;;;;;21.73;11.88;;;16.50;99.90;;;;;;5082761;28;20158;-64
2021/07/16 12:18:31;;;;;;;29.50;17.38;;;16.60;99.90;;;;;;5089427;28;20071;-64
2021/07/16 12:21:06;;;;;;;23.67;12.43;;;16.50;99.90;;;;;;5088728;28;20046;-65
2021/07/16 12:23:33;;;;;;;24.17;13.18;;;16.50;99.90;;;;;;5089086;28;20079;-63
2021/07/16 12:26:21;;;;;;;22.02;11.25;;;16.40;99.90;;;;;;5087422;28;20032;-63
2021/07/16 12:28:49;;;;;;;20.25;11.77;;;16.30;99.90;;;;;;5088186;28;20036;-64
2021/07/16 12:31:22;;;;;;;22.35;12.57;;;16.40;99.90;;;;;;5088594;28;20074;-62
2021/07/16 12:33:48;;;;;;;23.80;12.45;;;16.40;99.90;;;;;;5089454;28;20052;-64
2021/07/16 12:36:32;;;;;;;;;;;16.30;99.90;;;;;;5089495;28;20040;-64
2021/07/16 12:38:58;;;;;;;22.55;11.60;;;16.40;99.90;;;;;;5088774;28;19920;-64
2021/07/16 12:41:24;;;;;;;23.67;12.02;;;16.30;99.90;;;;;;5088777;28;20040;-65
2021/07/16 12:43:50;;;;;;;;;;;16.40;99.90;;;;;;5088466;28;20047;-65
2021/07/16 12:46:29;;;;;;;24.38;12.93;;;16.40;99.90;;;;;;5082446;28;19920;-65
2021/07/16 12:49:06;;;;;;;20.17;10.20;;;16.40;99.90;;;;;;5068957;28;20036;-64
2021/07/16 12:51:38;;;;;;;20.02;9.85;;;16.40;99.90;;;;;;5067378;28;20040;-64
2021/07/16 12:54:03;;;;;;;16.90;9.82;;;16.50;99.90;;;;;;5072092;28;20043;-64
2021/07/16 12:56:35;;;;;;;;;;;16.50;99.90;;;;;;5100339;28;20531;-63
2021/07/16 12:59:27;;;;;;;22.10;10.60;;;16.50;99.90;;;;;;5091365;28;20014;-63
2021/07/16 13:01:56;;;;;;;17.75;8.98;;;16.50;99.90;;;;;;5106880;28;20062;-63
2021/07/16 13:04:23;;;;;;;18.27;10.80;;;16.40;99.90;;;;;;5108925;28;20047;-64
2021/07/16 13:06:51;;;;;;;22.70;11.23;;;16.30;99.90;;;;;;5108243;28;20044;-63
2021/07/16 13:09:24;;;;;;;15.70;9.75;;;16.30;99.90;;;;;;5108749;28;20059;-63